Time;durP1;ratioP1;P1;durP2;ratioP2;P2;SDS_P1;SDS_P2;PMS_P1;PMS_P2;Temp;Humidity;BMP_temperature;BMP_pressure;BME280_temperature;BME280_humidity;BME280_pressure;Samples;Min_cycle;Max_cycle;Signal;HPM_P1;HPM_P2
2022/02/15 00:02:14;;;;;;;2.30;0.85;;;8.00;92.80;;;;;;6176170;28;20050;-77
2022/02/15 00:05:17;;;;;;;2.22;0.65;;;7.80;92.90;;;;;;6176158;28;20047;-78
2022/02/15 00:08:19;;;;;;;1.80;0.93;;;7.60;93.00;;;;;;6177040;28;20529;-78
2022/02/15 00:11:21;;;;;;;1.35;0.63;;;7.50;93.00;;;;;;6175766;28;20138;-78
2022/02/15 00:14:22;;;;;;;5.38;0.75;;;7.30;93.10;;;;;;6175047;28;20604;-78
2022/02/15 00:17:24;;;;;;;0.88;0.50;;;7.20;93.70;;;;;;6175101;28;20061;-77
2022/02/15 00:20:28;;;;;;;1.77;0.75;;;7.10;93.30;;;;;;6175596;28;20080;-78
2022/02/15 00:23:29;;;;;;;1.15;0.68;;;6.90;93.50;;;;;;6174883;28;20047;-79
2022/02/15 00:26:31;;;;;;;4.10;1.00;;;6.80;93.60;;;;;;6174298;28;20057;-78
2022/02/15 00:29:33;;;;;;;1.55;0.40;;;6.80;93.70;;;;;;6174710;28;20420;-78
2022/02/15 00:32:35;;;;;;;1.02;0.45;;;6.70;93.60;;;;;;6175001;28;20194;-77
2022/02/15 00:35:38;;;;;;;0.98;0.50;;;6.70;93.60;;;;;;6174306;28;20121;-78
2022/02/15 00:38:40;;;;;;;1.85;0.60;;;6.70;93.50;;;;;;6174879;28;20525;-78
2022/02/15 00:41:42;;;;;;;1.92;0.82;;;6.70;93.60;;;;;;6174717;28;20042;-77
2022/02/15 00:44:43;;;;;;;1.95;0.95;;;6.70;93.60;;;;;;6175002;28;20051;-78
2022/02/15 00:47:45;;;;;;;1.10;0.38;;;6.70;93.60;;;;;;6174436;28;20050;-77
2022/02/15 00:50:48;;;;;;;3.08;0.85;;;6.70;93.60;;;;;;6174236;28;20050;-77
2022/02/15 00:53:50;;;;;;;0.80;0.63;;;6.70;93.60;;;;;;6174905;28;20042;-78
2022/02/15 00:56:52;;;;;;;2.10;0.73;;;6.70;93.60;;;;;;6175150;28;20055;-80
2022/02/15 00:59:54;;;;;;;2.20;0.70;;;6.70;93.50;;;;;;6174423;28;20058;-77
2022/02/15 01:02:55;;;;;;;1.98;0.80;;;6.70;93.40;;;;;;6173447;28;20051;-78
2022/02/15 01:05:59;;;;;;;0.80;0.50;;;6.70;93.40;;;;;;6176407;28;20043;-78
2022/02/15 01:09:01;;;;;;;0.95;0.43;;;6.70;93.40;;;;;;6176074;28;20427;-79
2022/02/15 01:12:03;;;;;;;10.43;0.80;;;6.70;93.30;;;;;;6175684;28;20050;-78
2022/02/15 01:15:06;;;;;;;1.15;0.80;;;6.70;93.20;;;;;;6175098;28;20048;-80
2022/02/15 01:18:08;;;;;;;1.08;0.55;;;6.70;93.20;;;;;;6176303;28;20047;-78
2022/02/15 01:21:11;;;;;;;3.75;0.80;;;6.70;93.30;;;;;;6176710;28;20051;-79
2022/02/15 01:24:13;;;;;;;3.00;0.85;;;6.70;93.40;;;;;;6175846;28;20043;-78
2022/02/15 01:27:15;;;;;;;1.88;1.25;;;6.70;93.30;;;;;;6194186;22;20138;-84
2022/02/15 01:30:16;;;;;;;1.30;0.60;;;6.80;93.20;;;;;;6191108;28;20054;-82
2022/02/15 01:33:18;;;;;;;3.78;0.90;;;6.80;93.20;;;;;;6206203;28;20070;-82
2022/02/15 01:36:21;;;;;;;2.17;0.65;;;6.90;93.20;;;;;;6208964;28;20053;-82
2022/02/15 01:39:23;;;;;;;0.98;0.65;;;7.00;93.20;;;;;;6200694;28;20057;-82
2022/02/15 01:42:25;;;;;;;1.88;0.73;;;7.00;93.10;;;;;;6184940;28;20129;-82
2022/02/15 01:45:27;;;;;;;2.08;1.05;;;7.10;93.00;;;;;;6189543;28;20114;-81
2022/02/15 01:48:28;;;;;;;2.80;0.90;;;7.20;93.00;;;;;;6181461;28;20070;-82
2022/02/15 01:51:32;;;;;;;2.05;0.73;;;7.20;93.00;;;;;;6179230;28;20058;-82
2022/02/15 01:54:33;;;;;;;3.42;1.05;;;7.30;93.00;;;;;;6181022;28;20053;-80
2022/02/15 01:57:35;;;;;;;1.52;0.80;;;7.50;93.00;;;;;;6178427;28;20130;-82
2022/02/15 02:00:37;;;;;;;3.70;0.77;;;7.50;92.80;;;;;;6180100;28;20061;-82
2022/02/15 02:03:39;;;;;;;5.15;1.10;;;7.50;92.80;;;;;;6178769;28;20043;-80
2022/02/15 02:06:41;;;;;;;3.33;1.05;;;7.60;92.80;;;;;;6179043;28;20050;-82
2022/02/15 02:09:43;;;;;;;1.67;0.70;;;7.70;92.90;;;;;;6180436;28;20057;-82
2022/02/15 02:12:44;;;;;;;0.93;0.70;;;7.80;92.80;;;;;;6180878;28;20053;-81
2022/02/15 02:15:47;;;;;;;1.17;0.68;;;7.90;92.80;;;;;;6184483;28;20033;-81
2022/02/15 02:18:49;;;;;;;1.60;0.70;;;8.00;92.70;;;;;;6182970;28;20133;-81
2022/02/15 02:21:52;;;;;;;2.15;0.90;;;8.10;92.70;;;;;;6182990;28;20049;-81
2022/02/15 02:24:55;;;;;;;0.63;0.47;;;8.10;92.60;;;;;;6183429;28;20078;-81
2022/02/15 02:27:59;;;;;;;1.65;0.80;;;8.10;92.70;;;;;;6182015;28;20054;-81
2022/02/15 02:31:01;;;;;;;6.05;1.17;;;8.20;92.60;;;;;;6182602;28;20047;-81
2022/02/15 02:34:02;;;;;;;2.90;1.02;;;8.30;92.60;;;;;;6183581;28;20077;-81
2022/02/15 02:37:06;;;;;;;5.53;1.05;;;8.30;92.50;;;;;;6182547;28;20061;-79
2022/02/15 02:40:10;;;;;;;2.92;1.23;;;8.30;92.70;;;;;;6182015;28;20051;-81
2022/02/15 02:43:12;;;;;;;1.70;0.75;;;8.40;92.70;;;;;;6181725;28;20170;-81
2022/02/15 02:46:13;;;;;;;2.72;0.90;;;8.50;92.50;;;;;;6181910;28;20050;-80
2022/02/15 02:49:15;;;;;;;2.78;0.88;;;8.50;92.60;;;;;;6182815;28;20061;-81
2022/02/15 02:52:19;;;;;;;1.20;0.73;;;8.50;92.60;;;;;;6184105;28;20133;-80
2022/02/15 02:55:20;;;;;;;1.73;0.68;;;8.60;92.50;;;;;;6183030;28;20043;-81
2022/02/15 02:58:22;;;;;;;7.35;1.05;;;8.60;92.40;;;;;;6181952;28;20120;-80
2022/02/15 03:01:24;;;;;;;1.77;0.90;;;8.70;92.30;;;;;;6180935;28;20145;-81
2022/02/15 03:04:26;;;;;;;5.28;2.28;;;8.70;92.20;;;;;;6182133;28;20056;-80
2022/02/15 03:07:29;;;;;;;3.88;0.82;;;8.70;92.10;;;;;;6183138;28;20047;-81
2022/02/15 03:10:31;;;;;;;2.05;0.85;;;8.80;91.90;;;;;;6183124;28;20055;-82
2022/02/15 03:13:32;;;;;;;5.68;1.10;;;8.80;92.10;;;;;;6183469;28;20139;-81
2022/02/15 03:16:34;;;;;;;7.50;0.98;;;8.90;91.80;;;;;;6182436;28;20097;-82
2022/02/15 03:19:36;;;;;;;3.67;0.57;;;8.80;91.60;;;;;;6183359;28;20483;-81
2022/02/15 03:22:39;;;;;;;3.00;1.02;;;8.80;91.50;;;;;;6208121;28;20606;-82
2022/02/15 03:25:41;;;;;;;5.75;0.98;;;8.80;91.10;;;;;;6205432;28;20715;-81
2022/02/15 03:28:43;;;;;;;2.72;0.63;;;8.80;91.30;;;;;;6208733;28;20057;-81
2022/02/15 03:31:45;;;;;;;2.95;1.27;;;8.90;91.30;;;;;;6207719;28;20137;-81
2022/02/15 03:34:47;;;;;;;6.82;1.10;;;8.80;91.00;;;;;;6209182;28;20074;-81
2022/02/15 03:37:50;;;;;;;3.50;1.88;;;8.80;90.90;;;;;;6207831;28;20073;-82
2022/02/15 03:44:08;;;;;;;3.55;0.77;;;8.80;90.90;;;;;;6175723;28;20051;-82
2022/02/15 03:47:10;;;;;;;0.73;0.55;;;8.80;90.70;;;;;;6208098;28;20587;-82
2022/02/15 03:50:12;;;;;;;5.40;0.98;;;8.80;91.20;;;;;;6209014;28;20050;-82
2022/02/15 03:53:16;;;;;;;2.85;1.00;;;8.90;90.70;;;;;;6207895;28;20174;-82
2022/02/15 03:56:19;;;;;;;7.13;1.10;;;8.90;90.70;;;;;;6206431;28;20042;-81
2022/02/15 03:59:21;;;;;;;3.50;0.70;;;9.00;90.60;;;;;;6207013;28;20061;-81
2022/02/15 04:02:23;;;;;;;2.50;0.82;;;8.90;90.50;;;;;;6207429;28;20050;-82
2022/02/15 04:05:24;;;;;;;1.45;0.55;;;9.00;90.60;;;;;;6207281;28;20053;-82
2022/02/15 04:08:28;;;;;;;6.82;0.82;;;9.00;90.50;;;;;;6208924;28;20054;-82
2022/02/15 04:11:29;;;;;;;3.05;0.80;;;9.10;90.40;;;;;;6208561;28;20116;-82
2022/02/15 04:14:31;;;;;;;5.57;1.20;;;9.00;90.30;;;;;;6207988;28;20060;-82
2022/02/15 04:17:33;;;;;;;4.20;1.13;;;9.10;90.40;;;;;;6206594;28;20105;-81
2022/02/15 04:20:35;;;;;;;4.07;0.95;;;9.10;90.40;;;;;;6207324;28;20073;-82
2022/02/15 04:23:38;;;;;;;3.30;0.70;;;9.10;90.40;;;;;;6206171;28;20061;-82
2022/02/15 04:26:40;;;;;;;2.90;1.00;;;9.00;90.60;;;;;;6205127;28;20052;-81
2022/02/15 04:29:42;;;;;;;3.83;1.00;;;8.80;91.30;;;;;;6205066;28;20121;-80
2022/02/15 04:32:44;;;;;;;6.07;1.65;;;8.70;91.50;;;;;;6206088;28;20054;-81
2022/02/15 04:35:46;;;;;;;3.53;1.25;;;8.60;91.80;;;;;;6204508;28;20054;-80
2022/02/15 04:38:49;;;;;;;4.40;1.25;;;8.50;92.00;;;;;;6205546;28;20046;-80
2022/02/15 04:41:51;;;;;;;3.00;0.80;;;8.50;92.10;;;;;;6205499;28;20522;-81
2022/02/15 04:44:52;;;;;;;3.17;1.00;;;8.60;92.40;;;;;;6207074;28;20467;-81
2022/02/15 04:47:54;;;;;;;4.05;1.08;;;8.60;92.30;;;;;;6205859;28;20053;-80
2022/02/15 04:50:56;;;;;;;2.20;1.02;;;8.70;92.30;;;;;;6205990;28;20109;-80
2022/02/15 04:53:59;;;;;;;5.20;1.08;;;8.70;92.20;;;;;;6215055;28;20608;-80
2022/02/15 04:57:01;;;;;;;5.55;1.35;;;8.80;92.20;;;;;;6203832;28;20420;-80
2022/02/15 05:00:04;;;;;;;5.10;1.30;;;8.80;92.10;;;;;;6203122;28;20130;-81
2022/02/15 05:03:06;;;;;;;3.28;1.05;;;8.80;92.10;;;;;;6202751;28;20527;-80
2022/02/15 05:06:07;;;;;;;5.35;1.33;;;8.80;92.20;;;;;;6202136;28;20463;-80
2022/02/15 05:09:10;;;;;;;4.20;1.42;;;8.70;92.20;;;;;;6202088;28;20486;-80
2022/02/15 05:12:13;;;;;;;4.38;1.80;;;8.70;92.40;;;;;;6201721;28;20046;-80
2022/02/15 05:15:15;;;;;;;8.05;2.28;;;8.50;92.70;;;;;;6201948;28;20047;-80
2022/02/15 05:18:17;;;;;;;5.15;2.03;;;8.30;93.20;;;;;;6202830;28;20054;-80
2022/02/15 05:21:18;;;;;;;2.58;1.58;;;8.20;93.80;;;;;;6202608;28;20054;-80
2022/02/15 05:24:21;;;;;;;3.17;1.30;;;8.10;95.70;;;;;;6201789;28;20051;-80
2022/02/15 05:27:23;;;;;;;6.82;1.98;;;8.00;96.10;;;;;;6202125;28;20397;-80
2022/02/15 05:30:26;;;;;;;8.30;2.03;;;7.90;96.20;;;;;;6202304;28;20082;-80
2022/02/15 05:33:27;;;;;;;4.03;1.70;;;7.90;96.50;;;;;;6202308;28;20065;-80
2022/02/15 05:36:30;;;;;;;8.00;2.08;;;7.80;96.40;;;;;;6202886;28;20136;-80
2022/02/15 05:39:33;;;;;;;5.40;2.08;;;7.70;96.70;;;;;;6203205;28;20464;-80
2022/02/15 05:42:35;;;;;;;4.18;2.47;;;7.60;96.80;;;;;;6202148;28;20062;-81
2022/02/15 05:45:37;;;;;;;7.35;2.72;;;7.60;97.10;;;;;;6202080;28;20120;-81
2022/02/15 05:48:39;;;;;;;13.25;4.10;;;7.60;97.10;;;;;;6206897;28;20050;-81
2022/02/15 05:51:41;;;;;;;6.00;2.75;;;7.50;97.40;;;;;;6211179;28;20114;-83
2022/02/15 05:54:44;;;;;;;11.13;2.85;;;7.60;97.60;;;;;;6210525;28;20069;-83
2022/02/15 05:57:45;;;;;;;7.32;3.10;;;7.60;97.80;;;;;;6207261;28;20043;-83
2022/02/15 06:00:47;;;;;;;9.27;2.58;;;7.60;97.70;;;;;;6207597;28;20074;-81
2022/02/15 06:07:08;;;;;;;8.75;3.30;;;7.60;97.80;;;;;;6208186;28;20098;-81
2022/02/15 06:10:11;;;;;;;5.03;2.90;;;7.60;97.90;;;;;;6207085;28;20520;-81
2022/02/15 06:13:13;;;;;;;4.95;2.90;;;7.60;98.00;;;;;;6208208;28;20058;-80
2022/02/15 06:16:15;;;;;;;9.32;4.15;;;7.60;98.00;;;;;;6206628;28;20135;-80
2022/02/15 06:19:17;;;;;;;8.25;3.80;;;7.60;98.10;;;;;;6207884;28;20054;-81
2022/02/15 06:22:18;;;;;;;6.90;3.45;;;7.60;98.10;;;;;;6207303;28;20050;-81
2022/02/15 06:25:21;;;;;;;6.10;3.50;;;7.60;98.20;;;;;;6208526;28;20133;-80
2022/02/15 06:28:23;;;;;;;7.68;4.10;;;7.60;98.20;;;;;;6207488;28;20054;-84
2022/02/15 06:31:25;;;;;;;8.98;3.67;;;7.60;98.20;;;;;;6208075;28;20134;-83
2022/02/15 06:34:27;;;;;;;7.07;3.38;;;7.70;98.10;;;;;;6207337;28;20050;-83
2022/02/15 06:37:29;;;;;;;7.60;3.10;;;7.80;98.30;;;;;;6206797;28;20054;-83
2022/02/15 06:40:32;;;;;;;7.57;3.42;;;7.80;98.10;;;;;;6208047;28;20057;-83
2022/02/15 06:43:34;;;;;;;6.40;3.55;;;7.80;98.20;;;;;;6209519;28;20181;-83
2022/02/15 06:46:36;;;;;;;8.43;4.35;;;7.80;98.10;;;;;;6207717;28;20133;-83
2022/02/15 06:49:38;;;;;;;11.80;4.80;;;7.80;98.20;;;;;;6206727;28;20049;-81
2022/02/15 06:52:41;;;;;;;6.75;3.90;;;7.90;98.30;;;;;;6207931;28;20539;-83
2022/02/15 06:55:44;;;;;;;9.35;3.97;;;8.00;98.10;;;;;;6207148;28;20479;-83
2022/02/15 06:58:46;;;;;;;9.45;4.25;;;8.00;98.20;;;;;;6206884;28;20046;-83
2022/02/15 07:01:48;;;;;;;6.82;3.65;;;8.10;98.10;;;;;;6208716;28;20046;-80
2022/02/15 07:04:50;;;;;;;9.23;4.40;;;8.10;98.20;;;;;;6208878;28;20056;-80
2022/02/15 07:07:52;;;;;;;7.05;3.92;;;8.10;98.20;;;;;;6207993;28;20042;-80
2022/02/15 07:10:56;;;;;;;9.50;3.63;;;8.20;98.20;;;;;;6207308;28;20046;-80
2022/02/15 07:13:58;;;;;;;7.07;3.72;;;8.20;98.30;;;;;;6207508;28;20049;-80
2022/02/15 07:17:00;;;;;;;9.02;3.97;;;8.10;98.20;;;;;;6207571;28;20046;-80
2022/02/15 07:20:02;;;;;;;11.68;4.28;;;8.10;98.00;;;;;;6208335;28;20049;-81
2022/02/15 07:23:06;;;;;;;11.27;4.32;;;8.10;98.00;;;;;;6208024;28;20047;-80
2022/02/15 07:29:16;;;;;;;7.63;3.70;;;8.20;98.00;;;;;;6203388;28;20189;-81
2022/02/15 07:32:18;;;;;;;7.63;3.25;;;8.20;97.90;;;;;;6207785;28;20062;-80
2022/02/15 07:35:20;;;;;;;6.93;3.47;;;8.20;97.70;;;;;;6205492;28;20046;-80
2022/02/15 07:38:22;;;;;;;5.57;3.55;;;8.30;97.90;;;;;;6204997;28;20520;-81
2022/02/15 07:41:24;;;;;;;6.90;3.78;;;8.30;97.90;;;;;;6204929;28;20046;-81
2022/02/15 07:44:27;;;;;;;9.10;3.33;;;8.40;97.70;;;;;;6204658;28;20516;-81
2022/02/15 07:47:28;;;;;;;10.15;4.18;;;8.40;97.70;;;;;;6204047;28;20193;-79
2022/02/15 07:50:30;;;;;;;6.93;3.88;;;8.40;97.60;;;;;;6204433;28;20047;-81
2022/02/15 07:53:32;;;;;;;4.70;3.53;;;8.50;97.90;;;;;;6203814;28;20074;-82
2022/02/15 07:56:34;;;;;;;6.13;3.58;;;8.50;97.70;;;;;;6204182;28;20069;-80
2022/02/15 07:59:38;;;;;;;8.82;3.45;;;8.50;97.90;;;;;;6203761;28;20046;-81
2022/02/15 08:02:40;;;;;;;7.75;3.70;;;8.60;97.90;;;;;;6204763;28;20365;-80
2022/02/15 08:05:43;;;;;;;8.77;4.13;;;8.70;97.70;;;;;;6204267;28;20119;-81
2022/02/15 08:08:44;;;;;;;7.20;4.18;;;8.90;98.00;;;;;;6203957;28;20054;-81
2022/02/15 08:11:47;;;;;;;6.78;2.90;;;9.10;97.90;;;;;;6203797;28;20053;-81
2022/02/15 08:14:50;;;;;;;10.65;4.47;;;9.10;97.30;;;;;;6203038;28;20047;-81
2022/02/15 08:17:52;;;;;;;7.10;3.58;;;9.10;97.20;;;;;;6174742;28;20072;-79
2022/02/15 08:20:54;;;;;;;7.68;3.45;;;9.10;97.00;;;;;;6196642;28;20053;-79
2022/02/15 08:23:57;;;;;;;6.03;3.70;;;9.00;96.60;;;;;;6212526;28;20049;-81
2022/02/15 08:27:00;;;;;;;7.50;3.83;;;9.00;96.60;;;;;;6202712;28;20046;-78
2022/02/15 08:30:04;;;;;;;6.47;3.28;;;8.90;96.80;;;;;;6199355;28;20050;-80
2022/02/15 08:33:06;;;;;;;6.93;4.13;;;9.10;97.00;;;;;;6204549;28;20108;-79
2022/02/15 08:36:08;;;;;;;9.85;4.50;;;9.20;96.80;;;;;;6202640;28;20129;-82
2022/02/15 08:39:10;;;;;;;6.85;3.33;;;9.30;96.50;;;;;;6203125;28;20086;-81
2022/02/15 08:42:12;;;;;;;5.15;2.83;;;9.40;96.30;;;;;;6202296;28;20193;-80
2022/02/15 08:45:15;;;;;;;7.60;2.97;;;9.40;95.80;;;;;;6203476;28;20053;-79
2022/02/15 08:48:17;;;;;;;5.35;3.10;;;9.60;96.00;;;;;;6202688;28;20053;-79
2022/02/15 08:51:20;;;;;;;7.43;3.92;;;9.80;96.10;;;;;;6191411;28;20614;-80
2022/02/15 08:54:22;;;;;;;8.13;3.78;;;10.00;95.40;;;;;;6194251;28;20555;-78
2022/02/15 08:57:25;;;;;;;8.70;3.33;;;10.10;94.90;;;;;;6203699;28;20140;-80
2022/02/15 09:00:28;;;;;;;6.90;2.90;;;10.10;94.50;;;;;;6202368;28;20054;-80
2022/02/15 09:03:30;;;;;;;8.35;3.60;;;10.20;94.30;;;;;;6202250;28;20568;-81
2022/02/15 09:06:32;;;;;;;5.40;2.65;;;10.10;94.20;;;;;;6202918;28;20106;-79
2022/02/15 09:09:34;;;;;;;3.50;2.55;;;10.20;94.30;;;;;;6201360;28;20425;-79
2022/02/15 09:12:36;;;;;;;5.15;2.80;;;10.30;93.60;;;;;;6200760;28;20063;-79
2022/02/15 09:15:39;;;;;;;7.95;3.20;;;10.30;93.20;;;;;;6201613;28;20582;-79
2022/02/15 09:18:41;;;;;;;7.03;3.17;;;10.40;92.60;;;;;;6202734;28;20585;-80
2022/02/15 09:21:43;;;;;;;3.92;2.47;;;10.40;92.50;;;;;;6189104;28;20046;-78
2022/02/15 09:24:44;;;;;;;6.50;2.83;;;10.40;91.60;;;;;;6179065;28;20074;-79
2022/02/15 09:27:46;;;;;;;8.68;2.80;;;10.30;91.30;;;;;;6193107;28;20407;-78
2022/02/15 09:30:54;;;;;;;4.65;2.80;;;10.30;91.90;;;;;;6178724;28;20046;-80
2022/02/15 09:33:55;;;;;;;5.55;3.13;;;10.40;91.50;;;;;;6178673;28;20050;-80
2022/02/15 09:36:57;;;;;;;5.40;2.35;;;10.50;91.50;;;;;;6178795;28;20050;-78
2022/02/15 09:40:00;;;;;;;9.43;2.78;;;10.50;90.80;;;;;;6178117;28;20086;-78
2022/02/15 09:43:02;;;;;;;5.50;2.60;;;10.60;90.70;;;;;;6184944;28;20047;-81
2022/02/15 09:46:08;;;;;;;4.22;2.38;;;10.80;90.80;;;;;;6194217;28;20070;-77
2022/02/15 09:49:48;;;;;;;7.28;3.38;;;11.00;90.30;;;;;;6185283;28;20057;-80
2022/02/15 09:52:32;;;;;;;5.90;2.72;;;11.20;89.20;;;;;;6186511;28;20055;-81
2022/02/15 09:55:34;;;;;;;5.53;2.63;;;11.30;88.80;;;;;;6205989;28;20042;-81
2022/02/15 09:58:36;;;;;;;3.50;2.00;;;11.30;87.40;;;;;;6207409;28;20165;-82
2022/02/15 10:01:39;;;;;;;3.95;2.38;;;11.40;87.30;;;;;;6204921;28;20053;-79
2022/02/15 10:04:41;;;;;;;5.55;2.25;;;11.50;87.50;;;;;;6203080;28;20587;-82
2022/02/15 10:07:47;;;;;;;6.72;2.33;;;11.60;87.00;;;;;;6202230;28;20447;-80
2022/02/15 10:10:50;;;;;;;9.35;2.75;;;11.70;86.20;;;;;;6202265;28;20085;-81
2022/02/15 10:13:52;;;;;;;5.57;2.70;;;11.80;85.90;;;;;;6203324;28;20046;-79
2022/02/15 10:16:55;;;;;;;10.23;2.38;;;11.70;84.20;;;;;;6201995;28;20181;-80
2022/02/15 10:19:57;;;;;;;6.28;2.58;;;11.60;84.30;;;;;;6178354;28;20047;-80
2022/02/15 10:23:15;;;;;;;4.40;2.35;;;11.60;84.90;;;;;;6189009;28;20060;-79
2022/02/15 10:26:17;;;;;;;5.28;2.00;;;11.60;84.60;;;;;;6202911;28;20050;-79
2022/02/15 10:29:20;;;;;;;5.60;2.22;;;11.60;84.00;;;;;;6203074;28;20518;-81
2022/02/15 10:32:24;;;;;;;9.35;2.25;;;11.70;83.60;;;;;;6194065;28;20057;-82
2022/02/15 10:35:26;;;;;;;6.15;2.20;;;11.60;82.80;;;;;;6179019;28;20133;-80
2022/02/15 10:38:30;;;;;;;4.82;2.60;;;11.60;82.80;;;;;;6180591;28;20047;-79
2022/02/15 10:41:34;;;;;;;3.92;2.40;;;11.60;83.80;;;;;;6179854;28;20055;-83
2022/02/15 10:44:48;;;;;;;7.22;1.77;;;11.70;82.80;;;;;;6180834;28;20051;-81
2022/02/15 10:47:52;;;;;;;2.75;1.90;;;11.70;82.80;;;;;;6180875;28;20039;-81
2022/02/15 10:50:55;;;;;;;4.70;2.25;;;11.60;83.00;;;;;;6183963;28;20416;-81
2022/02/15 10:53:57;;;;;;;3.78;2.05;;;11.50;82.10;;;;;;6197705;28;20038;-80
2022/02/15 10:57:01;;;;;;;5.55;2.70;;;11.50;82.80;;;;;;6206046;28;20046;-80
2022/02/15 11:00:07;;;;;;;4.35;1.60;;;11.50;82.20;;;;;;6205771;28;20419;-80
2022/02/15 11:03:11;;;;;;;3.75;2.60;;;11.40;82.80;;;;;;6205228;28;20074;-81
2022/02/15 11:06:12;;;;;;;8.27;2.55;;;11.30;83.20;;;;;;6206194;28;20045;-78
2022/02/15 11:09:20;;;;;;;5.93;2.55;;;11.30;83.20;;;;;;6216378;28;20480;-83
2022/02/15 11:12:25;;;;;;;7.88;2.50;;;11.20;82.80;;;;;;6184944;28;20057;-80
2022/02/15 11:15:30;;;;;;;7.55;2.50;;;11.00;83.80;;;;;;6183795;28;20047;-82
2022/02/15 11:18:35;;;;;;;19.70;3.72;;;11.00;85.20;;;;;;6182675;28;20487;-81
2022/02/15 11:21:36;;;;;;;4.03;2.60;;;11.00;84.60;;;;;;6190352;28;20097;-82
2022/02/15 11:24:42;;;;;;;5.55;2.40;;;11.20;84.60;;;;;;6198867;28;20055;-82
2022/02/15 11:27:52;;;;;;;8.43;3.10;;;11.50;84.40;;;;;;6209438;28;20042;-82
2022/02/15 11:30:56;;;;;;;8.55;2.72;;;11.60;82.10;;;;;;6205694;28;20169;-82
2022/02/15 11:34:03;;;;;;;6.15;3.08;;;11.70;82.20;;;;;;6206050;28;20105;-82
2022/02/15 11:37:05;;;;;;;4.47;3.05;;;12.00;81.80;;;;;;6209323;28;20503;-81
2022/02/15 11:40:09;;;;;;;6.20;2.72;;;11.80;81.00;;;;;;6210503;28;20518;-80
2022/02/15 11:43:17;;;;;;;4.45;1.90;;;11.80;80.50;;;;;;6206125;28;20803;-81
2022/02/15 11:46:28;;;;;;;3.00;1.48;;;11.80;79.80;;;;;;6205230;28;20133;-81
2022/02/15 11:49:31;;;;;;;3.17;1.48;;;11.70;78.50;;;;;;6206819;28;20081;-81
2022/02/15 11:52:33;;;;;;;2.38;1.50;;;11.80;77.40;;;;;;6195624;28;20130;-81
2022/02/15 11:55:36;;;;;;;1.38;0.93;;;11.60;77.20;;;;;;6203763;28;20050;-81
2022/02/15 11:58:44;;;;;;;4.10;1.08;;;11.60;77.80;;;;;;6206089;28;20054;-80
2022/02/15 12:01:56;;;;;;;1.38;0.60;;;11.50;77.90;;;;;;6220498;28;20046;-81
2022/02/15 12:05:00;;;;;;;2.55;0.47;;;11.60;79.70;;;;;;6215441;28;20063;-81
2022/02/15 12:08:02;;;;;;;2.75;0.77;;;11.80;77.60;;;;;;6207728;28;20082;-80
2022/02/15 12:11:05;;;;;;;2.28;0.55;;;12.30;76.90;;;;;;6207061;28;20106;-81
2022/02/15 12:14:08;;;;;;;0.65;0.43;;;12.60;76.90;;;;;;6179653;28;20106;-79
2022/02/15 12:17:10;;;;;;;1.98;0.73;;;12.90;74.20;;;;;;6183284;28;20420;-81
2022/02/15 12:20:16;;;;;;;16.52;9.38;;;13.30;72.10;;;;;;6183129;28;20055;-80
2022/02/15 12:23:23;;;;;;;13.98;7.40;;;13.90;71.00;;;;;;6192038;28;20053;-81
2022/02/15 12:26:25;;;;;;;3.50;0.87;;;14.30;68.50;;;;;;6203221;28;20485;-81
2022/02/15 12:29:28;;;;;;;2.83;1.08;;;14.60;67.50;;;;;;6203460;28;20046;-82
2022/02/15 12:32:31;;;;;;;2.67;1.02;;;14.70;67.30;;;;;;6204045;28;20050;-82
2022/02/15 12:35:36;;;;;;;5.22;2.10;;;14.70;67.20;;;;;;6203581;28;20124;-79
2022/02/15 12:38:39;;;;;;;3.97;1.92;;;14.70;65.40;;;;;;6203287;28;20057;-82
2022/02/15 12:41:43;;;;;;;1.95;1.30;;;14.60;65.80;;;;;;6202760;28;20052;-82
2022/02/15 12:44:57;;;;;;;5.82;5.32;;;14.60;66.70;;;;;;6203395;28;20058;-83
2022/02/15 12:48:00;;;;;;;18.73;7.82;;;14.40;67.50;;;;;;6203804;28;20046;-80
2022/02/15 12:51:04;;;;;;;15.95;9.38;;;14.30;69.10;;;;;;6196788;28;20053;-81
2022/02/15 12:54:07;;;;;;;59.72;41.40;;;14.10;70.80;;;;;;6193249;28;20052;-82
2022/02/15 12:57:15;;;;;;;2.30;1.95;;;14.00;73.10;;;;;;6201600;28;20193;-80
2022/02/15 13:00:18;;;;;;;1.73;1.20;;;13.80;71.30;;;;;;6226587;28;20050;-83
2022/02/15 13:03:21;;;;;;;4.45;2.03;;;13.40;69.50;;;;;;6226461;28;20575;-80
2022/02/15 13:06:26;;;;;;;3.70;1.75;;;12.80;73.50;;;;;;6215903;28;20046;-80
2022/02/15 13:09:30;;;;;;;4.85;2.30;;;12.50;77.10;;;;;;6201065;28;20046;-80
2022/02/15 13:12:33;;;;;;;2.92;1.63;;;12.50;79.60;;;;;;6199887;28;20527;-80
2022/02/15 13:15:35;;;;;;;3.58;1.52;;;12.60;81.30;;;;;;6182432;28;20524;-78
2022/02/15 13:18:45;;;;;;;2.45;1.35;;;12.80;79.50;;;;;;6176575;28;20046;-80
2022/02/15 13:21:48;;;;;;;5.93;2.08;;;12.90;79.20;;;;;;6179749;28;20517;-81
2022/02/15 13:24:54;;;;;;;3.10;1.52;;;13.00;76.90;;;;;;6196215;28;20069;-81
2022/02/15 13:28:00;;;;;;;7.97;1.73;;;13.00;77.40;;;;;;6206344;22;20496;-80
2022/02/15 13:31:04;;;;;;;4.05;1.13;;;13.00;76.90;;;;;;6191369;28;20500;-83
2022/02/15 13:34:06;;;;;;;3.28;1.60;;;12.70;76.10;;;;;;6202122;28;20500;-82
2022/02/15 13:37:11;;;;;;;3.85;1.45;;;12.50;78.70;;;;;;6202028;28;20054;-80
2022/02/15 13:40:13;;;;;;;5.20;1.10;;;12.40;80.10;;;;;;6203642;28;20257;-81
2022/02/15 13:43:21;;;;;;;3.13;0.85;;;12.30;76.20;;;;;;6199382;28;20129;-82
2022/02/15 13:46:24;;;;;;;4.22;1.27;;;12.30;77.00;;;;;;6200910;28;20124;-82
2022/02/15 13:49:25;;;;;;;2.55;1.00;;;12.20;76.20;;;;;;6201308;28;20050;-82
2022/02/15 13:52:30;;;;;;;2.25;1.13;;;12.30;76.40;;;;;;6210712;28;20061;-83
2022/02/15 13:55:31;;;;;;;4.13;1.05;;;12.40;75.60;;;;;;6238641;28;20084;-83
2022/02/15 13:58:33;;;;;;;3.05;1.08;;;12.40;74.60;;;;;;6233390;28;20046;-81
2022/02/15 14:01:36;;;;;;;4.95;1.00;;;12.50;73.20;;;;;;6224603;28;20060;-82
2022/02/15 14:04:38;;;;;;;1.75;0.70;;;12.60;73.00;;;;;;6224599;28;20050;-81
2022/02/15 14:07:41;;;;;;;3.30;0.73;;;12.60;71.30;;;;;;6223433;28;20321;-80
2022/02/15 14:10:45;;;;;;;1.92;0.52;;;12.60;72.30;;;;;;6228026;28;20050;-81
2022/02/15 14:13:47;;;;;;;2.33;1.05;;;12.60;70.30;;;;;;6223264;28;20046;-82
2022/02/15 14:16:49;;;;;;;2.20;0.70;;;12.60;70.30;;;;;;6211355;28;20133;-82
2022/02/15 14:19:53;;;;;;;2.55;0.85;;;12.50;70.20;;;;;;6213469;28;20057;-81
2022/02/15 14:22:56;;;;;;;2.08;0.73;;;12.30;70.10;;;;;;6220443;28;20047;-82
2022/02/15 14:25:58;;;;;;;3.72;2.30;;;12.20;70.30;;;;;;6231708;28;20061;-81
2022/02/15 14:29:00;;;;;;;1.65;0.47;;;12.20;70.80;;;;;;6231733;28;20050;-80
2022/02/15 14:32:02;;;;;;;0.57;0.43;;;12.20;68.30;;;;;;6239866;28;20050;-81
2022/02/15 14:35:04;;;;;;;3.15;0.63;;;12.30;70.20;;;;;;6237455;28;20137;-83
2022/02/15 14:38:08;;;;;;;4.50;1.00;;;12.60;67.20;;;;;;6232562;28;20053;-82
2022/02/15 14:41:09;;;;;;;2.17;0.90;;;12.80;66.00;;;;;;6232582;28;20069;-82
2022/02/15 14:44:11;;;;;;;2.97;0.85;;;13.20;65.20;;;;;;6228550;28;20049;-82
2022/02/15 14:47:13;;;;;;;4.13;0.80;;;13.40;62.70;;;;;;6226259;28;20446;-81
2022/02/15 14:50:15;;;;;;;5.57;0.75;;;13.50;62.90;;;;;;6226803;28;20234;-84
2022/02/15 14:53:20;;;;;;;1.70;0.90;;;13.70;61.50;;;;;;6216568;28;20111;-79
2022/02/15 14:56:22;;;;;;;2.47;0.80;;;13.70;61.70;;;;;;6227267;28;20046;-81
2022/02/15 14:59:24;;;;;;;3.22;0.88;;;13.70;61.80;;;;;;6226174;28;20046;-80
2022/02/15 15:02:26;;;;;;;4.20;0.75;;;13.70;61.90;;;;;;6227179;28;20056;-85
2022/02/15 15:05:28;;;;;;;1.05;0.47;;;13.60;61.10;;;;;;6226630;28;20104;-80
2022/02/15 15:08:31;;;;;;;2.30;1.13;;;13.30;60.50;;;;;;6226637;28;20103;-82
2022/02/15 15:11:33;;;;;;;4.90;0.95;;;13.00;61.50;;;;;;6227221;28;20511;-83
2022/02/15 15:14:35;;;;;;;2.70;0.70;;;12.70;62.00;;;;;;6229924;28;20105;-81
2022/02/15 15:17:38;;;;;;;3.58;0.93;;;12.50;62.60;;;;;;6230262;28;20145;-82
2022/02/15 15:20:40;;;;;;;11.57;6.45;;;12.40;62.80;;;;;;6224946;28;20511;-82
2022/02/15 15:23:43;;;;;;;3.72;1.23;;;12.10;63.70;;;;;;6215375;28;20101;-80
2022/02/15 15:26:46;;;;;;;3.03;1.10;;;12.00;64.30;;;;;;6212336;28;20467;-82
2022/02/15 15:29:48;;;;;;;3.63;1.25;;;12.00;64.40;;;;;;6204071;28;20435;-83
2022/02/15 15:32:50;;;;;;;1.80;0.82;;;12.20;64.60;;;;;;6205058;28;20054;-81
2022/02/15 15:35:52;;;;;;;1.42;0.50;;;12.40;64.30;;;;;;6201741;28;20047;-81
2022/02/15 15:38:55;;;;;;;1.90;0.75;;;12.50;63.30;;;;;;6202429;28;20056;-81
2022/02/15 15:41:57;;;;;;;4.57;1.25;;;12.50;62.50;;;;;;6202635;28;20050;-80
2022/02/15 15:44:58;;;;;;;1.45;0.57;;;12.30;62.60;;;;;;6202420;28;20201;-80
2022/02/15 15:48:00;;;;;;;4.90;0.70;;;12.10;63.80;;;;;;6207520;28;20106;-83
2022/02/15 15:51:02;;;;;;;2.40;0.80;;;12.00;64.70;;;;;;6211608;28;20099;-82
2022/02/15 15:54:06;;;;;;;3.15;1.17;;;11.70;64.50;;;;;;6227484;28;20042;-84
2022/02/15 15:57:08;;;;;;;4.85;0.93;;;11.60;63.70;;;;;;6234895;28;20073;-84
2022/02/15 16:00:11;;;;;;;1.77;0.68;;;11.50;64.00;;;;;;6233996;28;20038;-85
2022/02/15 16:03:13;;;;;;;1.23;0.60;;;11.40;64.20;;;;;;6235318;28;20061;-82
2022/02/15 16:06:15;;;;;;;0.85;0.70;;;11.30;64.40;;;;;;6235554;28;20085;-85
2022/02/15 16:09:19;;;;;;;1.63;0.55;;;11.30;63.60;;;;;;6235320;28;20076;-84